ORER

Details ICAO ORER (EBL)
Name ERBIL INTL
Region Iraq
Timezone Asia/Baghdad (UTC+3.0)
Plans Departing 54
Arriving 93
Stats Elevation 1,341 ft / 409 m (AMSL)
Location 36.237450° 43.959191°
Runways 3
Magnetic Variation 5.274° E
Sunrise 2018-05-23 01:53:58 UTC / 2018-05-23 04:53:58 Local
Sunset 2018-05-23 16:10:41 UTC / 2018-05-23 19:10:41 Local
Advertisement - Login to hide

Runways

ID Width Length Bearing (true) Bearing (mag) Surface Threshold Offset Overrun Length
15 95 ft / 29 m 9,209 ft / 2,807 m 151.77° 146.50° Asphalt 0 ft / 0 m 185 ft / 56 m
15L 105 ft / 32 m 4,089 ft / 1,246 m 151.76° 146.49° Asphalt 0 ft / 0 m 0 ft / 0 m
18 225 ft / 69 m 13,864 ft / 4,226 m 180.44° 175.17° Asphalt 0 ft / 0 m 0 ft / 0 m
33 95 ft / 29 m 9,209 ft / 2,807 m 331.78° 326.51° Asphalt 0 ft / 0 m 185 ft / 56 m
33R 105 ft / 32 m 4,089 ft / 1,246 m 331.76° 326.49° Asphalt 0 ft / 0 m 0 ft / 0 m
36 225 ft / 69 m 13,864 ft / 4,226 m 0.44° 355.17° Asphalt 0 ft / 0 m 0 ft / 0 m

Map

Weather


0- 5 10 15 20 25 30 35+ Temperature / ° C

Clouds and Precipitation
Forecast for 2018-05-23 06:00 UTC. Updated 3 hours ago

Ground ~20,000 ft ~40,000 ft Winds

METAR

ORER 230700Z 11016KT 9000 NSC 33/09 Q1013 NOSIG

TAF

TAF ORER 222200Z 2300/2324 06008KT 8000 TS FEW025CB SCT030

Frequencies

Tower 128.80 MHz TWR
Approach 129.75 MHz KIRKUK
Warning: Do not use this data for real-world aviation or navigation. No guarantee of current accuracy is given.